Lake Fork, ID (83635)

3:04 AM MDT on September 05, 2015 (GMT -0600)
McCall | | Change Station
CLOSE
Current Station
Airport
Location: McCall,
Elevation: 5020 ft
Nearby Weather Stations

Elev 5020 ft 44.89 °N, 116.10 °W | Updated 13 minutes ago

Overcast
Overcast
41 °F
Feels Like 41 °F
N
0
Wind Variable Wind from North

Today
High -- | Low -- °F
--% Chance of Precip.
Yesterday
High -- | Low -- °F
Precip. -- in
7:11 AM 8:14 PM
Waning Gibbous, 50% visible
Pressure 29.79 in
Visibility 10.0 miles
Clouds Clear
Dew Point 39 °F
Humidity 93%
Rainfall 0.02 in
Snow Depth Not available.
UV 0 out of 12
Pollen 7.30 out of 12
Air Quality Not available.
Flu Activity Not available.
METAR KMYL 050851Z AUTO 00000KT 10SM CLR 05/04 A2985 RMK AO2 SLP087 60002 T00500039 56006
Pressure 29.79 in
Visibility 10.0 miles
Clouds Clear
Dew Point 39 °F
Humidity 93%
Rainfall 0.02 in
Snow Depth Not available.
UV 0 out of 12
Pollen 7.30 out of 12
Air Quality Not available.
Flu Activity Not available.
METAR KMYL 050851Z AUTO 00000KT 10SM CLR 05/04 A2985 RMK AO2 SLP087 60002 T00500039 56006

10-Day Weather Forecast

×

Almanac

Astronomy

Sep. 05, 2015 Rise Set
Actual Time
Civil Twilight
Nautical Twilight
Astronomical Twilight
Moon
Length of Visible Light
Length of Day
Tomorrow will be .
, % of the Moon is Illuminated

Today's Extremes

State Highs State Lows

Community

WunderPhotos

Upload Photos

1,852,440 photos uploaded!

WunderBlogs® & News

Nearby

Air Quality

  Air Quality AQ Index Pollutant
Not available.

Snow Depth

Station Depth Elevation

Earthquake Activity

City Distance Mag. Time & Date
Minimum magnitude displayed is 2.5.

Coastal Water Temperatures

Place Temperature

Stations

Nearby Weather Stations

Station Location Temp. Windchill Dew Point Humidity Wind Precip. Elev Updated Type